DAOO/ORN METAR and TAF weather

Enter ICAO airport designator
Station Type Date Time Source
DAOO METAR 2019/12/12 12:00 UTC NOAA

DAOO 121200Z 22016KT 9999 FEW010 BKN026 15/07 Q1022


Station Type Date Time Source
DAOO Decoded METAR 2019/12/12 12:00 UTC NOAA

Oran / Es Senia, Algeria (DAOO) 35-38N 000-36W 90M
Dec 12, 2019 - 07:00 AM EST / 2019.12.12 1200 UTC
Wind: from the SW (220 degrees) at 18 MPH (16 KT):0
Visibility: greater than 7 mile(s):0
Sky conditions: mostly cloudy
Temperature: 59 F (15 C)
Dew Point: 44 F (7 C)
Relative Humidity: 58%
Pressure (altimeter): 30.18 in. Hg (1022 hPa)
ob: DAOO 121200Z 22016KT 9999 FEW010 BKN026 15/07 Q1022
cycle: 12

Station Type Date Time Source
DAOO TAF 2019/12/12 12:33 UTC NOAA

TAF DAOO 121100Z 1212/1312 22025KT 9999 FEW010 BKN026 PROB40
TEMPO 1221/1306 5000 -RABR BKN010

Example: see airport list